sensor_id;sensor_type;location;lat;lon;timestamp;temperature;humidity
38854;DHT22;24606;51.992;4.198;2023-05-07T00:04:26;24.30;68.10
38854;DHT22;24606;51.992;4.198;2023-05-07T00:09:30;24.30;68.20
38854;DHT22;24606;51.992;4.198;2023-05-07T00:14:32;24.30;68.30
38854;DHT22;24606;51.992;4.198;2023-05-07T00:19:33;24.30;68.40
38854;DHT22;24606;51.992;4.198;2023-05-07T00:24:36;24.20;68.60
38854;DHT22;24606;51.992;4.198;2023-05-07T00:29:38;24.20;68.70
38854;DHT22;24606;51.992;4.198;2023-05-07T00:34:40;24.20;68.90
38854;DHT22;24606;51.992;4.198;2023-05-07T00:39:43;24.20;68.80
38854;DHT22;24606;51.992;4.198;2023-05-07T00:44:45;24.10;68.90
38854;DHT22;24606;51.992;4.198;2023-05-07T00:49:47;24.10;69.00
38854;DHT22;24606;51.992;4.198;2023-05-07T00:54:50;24.10;69.10
38854;DHT22;24606;51.992;4.198;2023-05-07T00:59:53;24.10;69.20
38854;DHT22;24606;51.992;4.198;2023-05-07T01:04:55;24.10;69.10
38854;DHT22;24606;51.992;4.198;2023-05-07T01:09:58;24.10;69.10
38854;DHT22;24606;51.992;4.198;2023-05-07T01:15:01;24.00;69.40
38854;DHT22;24606;51.992;4.198;2023-05-07T01:20:05;24.00;69.40
38854;DHT22;24606;51.992;4.198;2023-05-07T01:25:08;24.00;69.60
38854;DHT22;24606;51.992;4.198;2023-05-07T01:30:11;23.90;69.60
38854;DHT22;24606;51.992;4.198;2023-05-07T01:35:17;23.90;69.70
38854;DHT22;24606;51.992;4.198;2023-05-07T01:40:21;23.90;70.00
38854;DHT22;24606;51.992;4.198;2023-05-07T01:45:24;23.90;70.00
38854;DHT22;24606;51.992;4.198;2023-05-07T01:50:26;23.80;70.00
38854;DHT22;24606;51.992;4.198;2023-05-07T01:55:30;23.80;70.20
38854;DHT22;24606;51.992;4.198;2023-05-07T02:00:32;23.80;70.20
38854;DHT22;24606;51.992;4.198;2023-05-07T02:05:33;23.80;70.30
38854;DHT22;24606;51.992;4.198;2023-05-07T02:10:36;23.80;70.60
38854;DHT22;24606;51.992;4.198;2023-05-07T02:15:38;23.70;70.10
38854;DHT22;24606;51.992;4.198;2023-05-07T02:20:40;23.70;70.70
38854;DHT22;24606;51.992;4.198;2023-05-07T02:25:43;23.70;70.70
38854;DHT22;24606;51.992;4.198;2023-05-07T02:30:45;23.70;70.70
38854;DHT22;24606;51.992;4.198;2023-05-07T02:35:47;23.70;70.90
38854;DHT22;24606;51.992;4.198;2023-05-07T02:40:50;23.70;70.80
38854;DHT22;24606;51.992;4.198;2023-05-07T02:46:00;23.70;70.90
38854;DHT22;24606;51.992;4.198;2023-05-07T02:51:03;23.60;70.90
38854;DHT22;24606;51.992;4.198;2023-05-07T02:56:07;23.60;70.90
38854;DHT22;24606;51.992;4.198;2023-05-07T03:01:09;23.60;71.00
38854;DHT22;24606;51.992;4.198;2023-05-07T03:06:11;23.50;70.70
38854;DHT22;24606;51.992;4.198;2023-05-07T03:11:14;23.50;71.20
38854;DHT22;24606;51.992;4.198;2023-05-07T03:16:16;23.50;71.00
38854;DHT22;24606;51.992;4.198;2023-05-07T03:21:17;23.50;71.00
38854;DHT22;24606;51.992;4.198;2023-05-07T03:26:20;23.50;71.00
38854;DHT22;24606;51.992;4.198;2023-05-07T03:31:22;23.40;71.50
38854;DHT22;24606;51.992;4.198;2023-05-07T03:36:24;23.40;71.20
38854;DHT22;24606;51.992;4.198;2023-05-07T03:41:28;23.40;71.30
38854;DHT22;24606;51.992;4.198;2023-05-07T03:46:30;23.40;71.40
38854;DHT22;24606;51.992;4.198;2023-05-07T03:51:33;23.40;71.60
38854;DHT22;24606;51.992;4.198;2023-05-07T03:56:38;23.40;71.50
38854;DHT22;24606;51.992;4.198;2023-05-07T04:01:39;23.40;71.90
38854;DHT22;24606;51.992;4.198;2023-05-07T04:06:41;23.30;71.80
38854;DHT22;24606;51.992;4.198;2023-05-07T04:11:44;23.30;71.80
38854;DHT22;24606;51.992;4.198;2023-05-07T04:16:46;23.30;71.70
38854;DHT22;24606;51.992;4.198;2023-05-07T04:21:48;23.30;71.70
38854;DHT22;24606;51.992;4.198;2023-05-07T04:26:51;23.30;71.90
38854;DHT22;24606;51.992;4.198;2023-05-07T04:31:53;23.30;71.80
38854;DHT22;24606;51.992;4.198;2023-05-07T04:36:58;23.30;72.30
38854;DHT22;24606;51.992;4.198;2023-05-07T04:42:01;23.30;71.80
38854;DHT22;24606;51.992;4.198;2023-05-07T04:47:03;23.20;72.00
38854;DHT22;24606;51.992;4.198;2023-05-07T04:52:05;23.20;71.80
38854;DHT22;24606;51.992;4.198;2023-05-07T04:57:08;23.30;71.90
38854;DHT22;24606;51.992;4.198;2023-05-07T05:02:10;23.20;71.70
38854;DHT22;24606;51.992;4.198;2023-05-07T05:07:12;23.30;71.80
38854;DHT22;24606;51.992;4.198;2023-05-07T05:12:15;23.30;71.90
38854;DHT22;24606;51.992;4.198;2023-05-07T05:17:18;23.20;72.00
38854;DHT22;24606;51.992;4.198;2023-05-07T05:22:20;23.20;71.90
38854;DHT22;24606;51.992;4.198;2023-05-07T05:27:24;23.30;72.00
38854;DHT22;24606;51.992;4.198;2023-05-07T05:32:26;23.20;71.90
38854;DHT22;24606;51.992;4.198;2023-05-07T05:37:28;23.20;71.50
38854;DHT22;24606;51.992;4.198;2023-05-07T05:42:32;23.20;71.80
38854;DHT22;24606;51.992;4.198;2023-05-07T05:47:33;23.20;71.70
38854;DHT22;24606;51.992;4.198;2023-05-07T05:52:35;23.20;71.70
38854;DHT22;24606;51.992;4.198;2023-05-07T05:57:38;23.20;72.00
38854;DHT22;24606;51.992;4.198;2023-05-07T06:02:40;23.20;71.80
38854;DHT22;24606;51.992;4.198;2023-05-07T06:07:43;23.20;71.90
38854;DHT22;24606;51.992;4.198;2023-05-07T06:12:46;23.00;71.10
38854;DHT22;24606;51.992;4.198;2023-05-07T06:17:48;22.90;71.50
38854;DHT22;24606;51.992;4.198;2023-05-07T06:22:50;22.80;72.00
38854;DHT22;24606;51.992;4.198;2023-05-07T06:27:53;22.80;72.10
38854;DHT22;24606;51.992;4.198;2023-05-07T06:32:55;23.10;71.20
38854;DHT22;24606;51.992;4.198;2023-05-07T06:37:57;23.20;71.70
38854;DHT22;24606;51.992;4.198;2023-05-07T06:43:00;23.00;71.20
38854;DHT22;24606;51.992;4.198;2023-05-07T06:48:03;23.20;72.10
38854;DHT22;24606;51.992;4.198;2023-05-07T06:53:04;23.10;71.50
38854;DHT22;24606;51.992;4.198;2023-05-07T06:58:08;23.00;71.00
38854;DHT22;24606;51.992;4.198;2023-05-07T07:03:09;23.00;71.30
38854;DHT22;24606;51.992;4.198;2023-05-07T07:08:11;23.00;71.10
38854;DHT22;24606;51.992;4.198;2023-05-07T07:13:14;23.40;71.00
38854;DHT22;24606;51.992;4.198;2023-05-07T07:18:16;23.50;70.50
38854;DHT22;24606;51.992;4.198;2023-05-07T07:23:18;23.40;70.10
38854;DHT22;24606;51.992;4.198;2023-05-07T07:28:22;23.40;70.00
38854;DHT22;24606;51.992;4.198;2023-05-07T07:33:24;23.40;69.70
38854;DHT22;24606;51.992;4.198;2023-05-07T07:38:26;23.40;69.70
38854;DHT22;24606;51.992;4.198;2023-05-07T07:43:29;23.40;69.70
38854;DHT22;24606;51.992;4.198;2023-05-07T07:48:31;23.40;69.30
38854;DHT22;24606;51.992;4.198;2023-05-07T07:53:33;23.40;69.80
38854;DHT22;24606;51.992;4.198;2023-05-07T07:58:36;23.50;69.40
38854;DHT22;24606;51.992;4.198;2023-05-07T08:03:39;23.60;69.10
38854;DHT22;24606;51.992;4.198;2023-05-07T08:08:41;23.70;67.80
38854;DHT22;24606;51.992;4.198;2023-05-07T08:13:45;23.70;67.90
38854;DHT22;24606;51.992;4.198;2023-05-07T08:18:47;23.70;67.90
38854;DHT22;24606;51.992;4.198;2023-05-07T08:23:48;23.70;68.10
38854;DHT22;24606;51.992;4.198;2023-05-07T08:28:52;23.70;68.10
38854;DHT22;24606;51.992;4.198;2023-05-07T08:33:54;23.70;68.00
38854;DHT22;24606;51.992;4.198;2023-05-07T08:38:55;23.70;67.80
38854;DHT22;24606;51.992;4.198;2023-05-07T08:43:59;23.90;67.50
38854;DHT22;24606;51.992;4.198;2023-05-07T08:49:04;24.10;66.80
38854;DHT22;24606;51.992;4.198;2023-05-07T08:54:06;24.10;66.40
38854;DHT22;24606;51.992;4.198;2023-05-07T08:59:10;24.30;79.60
38854;DHT22;24606;51.992;4.198;2023-05-07T09:04:12;24.60;75.00
38854;DHT22;24606;51.992;4.198;2023-05-07T09:09:14;24.40;71.50
38854;DHT22;24606;51.992;4.198;2023-05-07T09:14:21;24.30;69.40
38854;DHT22;24606;51.992;4.198;2023-05-07T09:19:24;24.30;69.10
38854;DHT22;24606;51.992;4.198;2023-05-07T09:24:26;24.30;69.30
38854;DHT22;24606;51.992;4.198;2023-05-07T09:29:30;24.30;69.10
38854;DHT22;24606;51.992;4.198;2023-05-07T09:34:36;24.30;69.20
38854;DHT22;24606;51.992;4.198;2023-05-07T09:39:41;24.20;70.40
38854;DHT22;24606;51.992;4.198;2023-05-07T09:44:45;24.20;70.00
38854;DHT22;24606;51.992;4.198;2023-05-07T09:49:48;24.30;70.00
38854;DHT22;24606;51.992;4.198;2023-05-07T09:54:50;24.50;68.40
38854;DHT22;24606;51.992;4.198;2023-05-07T09:59:55;24.40;68.90
38854;DHT22;24606;51.992;4.198;2023-05-07T10:04:58;24.40;68.90
38854;DHT22;24606;51.992;4.198;2023-05-07T10:10:01;24.40;68.50
38854;DHT22;24606;51.992;4.198;2023-05-07T10:15:07;24.60;67.60
38854;DHT22;24606;51.992;4.198;2023-05-07T10:20:10;24.70;67.80
38854;DHT22;24606;51.992;4.198;2023-05-07T10:25:16;24.40;67.80
38854;DHT22;24606;51.992;4.198;2023-05-07T10:30:29;24.30;67.00
38854;DHT22;24606;51.992;4.198;2023-05-07T10:35:39;24.60;68.40
38854;DHT22;24606;51.992;4.198;2023-05-07T10:40:42;24.70;67.80
38854;DHT22;24606;51.992;4.198;2023-05-07T10:46:09;24.70;67.50
38854;DHT22;24606;51.992;4.198;2023-05-07T10:51:19;24.70;67.80
38854;DHT22;24606;51.992;4.198;2023-05-07T10:56:25;24.70;67.20
38854;DHT22;24606;51.992;4.198;2023-05-07T11:01:50;25.00;66.50
38854;DHT22;24606;51.992;4.198;2023-05-07T11:07:24;24.90;64.00
38854;DHT22;24606;51.992;4.198;2023-05-07T11:12:51;24.80;68.00
38854;DHT22;24606;51.992;4.198;2023-05-07T11:17:57;24.70;69.10
38854;DHT22;24606;51.992;4.198;2023-05-07T11:22:59;24.50;70.00
38854;DHT22;24606;51.992;4.198;2023-05-07T11:28:04;24.10;69.50
38854;DHT22;24606;51.992;4.198;2023-05-07T11:33:07;23.00;80.60
38854;DHT22;24606;51.992;4.198;2023-05-07T11:38:10;24.30;72.90
38854;DHT22;24606;51.992;4.198;2023-05-07T11:43:12;24.50;71.60
38854;DHT22;24606;51.992;4.198;2023-05-07T11:48:16;24.50;73.20
38854;DHT22;24606;51.992;4.198;2023-05-07T11:53:18;23.90;75.70
38854;DHT22;24606;51.992;4.198;2023-05-07T11:58:22;24.50;72.70
38854;DHT22;24606;51.992;4.198;2023-05-07T12:03:27;23.30;76.60
38854;DHT22;24606;51.992;4.198;2023-05-07T12:08:29;24.10;76.50
38854;DHT22;24606;51.992;4.198;2023-05-07T12:13:31;23.90;78.50
38854;DHT22;24606;51.992;4.198;2023-05-07T12:18:35;23.30;79.60
38854;DHT22;24606;51.992;4.198;2023-05-07T12:23:38;24.10;76.00
38854;DHT22;24606;51.992;4.198;2023-05-07T12:28:40;24.60;73.70
38854;DHT22;24606;51.992;4.198;2023-05-07T12:33:44;24.70;72.60
38854;DHT22;24606;51.992;4.198;2023-05-07T12:38:49;24.60;73.40
38854;DHT22;24606;51.992;4.198;2023-05-07T12:43:56;25.00;71.00
38854;DHT22;24606;51.992;4.198;2023-05-07T12:48:59;25.30;69.40
38854;DHT22;24606;51.992;4.198;2023-05-07T12:54:01;25.30;67.60
38854;DHT22;24606;51.992;4.198;2023-05-07T12:59:03;25.50;66.80
38854;DHT22;24606;51.992;4.198;2023-05-07T13:04:06;25.10;69.10
38854;DHT22;24606;51.992;4.198;2023-05-07T13:09:08;25.40;67.20
38854;DHT22;24606;51.992;4.198;2023-05-07T13:14:10;25.50;66.90
38854;DHT22;24606;51.992;4.198;2023-05-07T13:19:13;25.70;66.30
38854;DHT22;24606;51.992;4.198;2023-05-07T13:24:15;25.60;67.60
38854;DHT22;24606;51.992;4.198;2023-05-07T13:29:17;25.20;70.60
38854;DHT22;24606;51.992;4.198;2023-05-07T13:34:20;25.60;66.50
38854;DHT22;24606;51.992;4.198;2023-05-07T13:39:22;25.40;69.00
38854;DHT22;24606;51.992;4.198;2023-05-07T13:44:24;25.10;69.30
38854;DHT22;24606;51.992;4.198;2023-05-07T13:49:28;25.30;69.00
38854;DHT22;24606;51.992;4.198;2023-05-07T13:54:30;25.00;72.20
38854;DHT22;24606;51.992;4.198;2023-05-07T13:59:32;25.20;71.50
38854;DHT22;24606;51.992;4.198;2023-05-07T14:04:35;24.80;72.90
38854;DHT22;24606;51.992;4.198;2023-05-07T14:09:38;24.60;63.90
38854;DHT22;24606;51.992;4.198;2023-05-07T14:14:39;25.20;71.40
38854;DHT22;24606;51.992;4.198;2023-05-07T14:19:42;24.30;78.40
38854;DHT22;24606;51.992;4.198;2023-05-07T14:24:45;25.10;68.30
38854;DHT22;24606;51.992;4.198;2023-05-07T14:29:47;25.60;69.80
38854;DHT22;24606;51.992;4.198;2023-05-07T14:34:52;26.00;71.20
38854;DHT22;24606;51.992;4.198;2023-05-07T14:39:54;26.30;69.40
38854;DHT22;24606;51.992;4.198;2023-05-07T14:44:56;26.70;67.20
38854;DHT22;24606;51.992;4.198;2023-05-07T14:49:59;26.80;61.10
38854;DHT22;24606;51.992;4.198;2023-05-07T14:55:02;26.80;61.10
38854;DHT22;24606;51.992;4.198;2023-05-07T15:00:05;26.20;60.50
38854;DHT22;24606;51.992;4.198;2023-05-07T15:05:09;26.50;71.10
38854;DHT22;24606;51.992;4.198;2023-05-07T15:10:11;27.20;71.20
38854;DHT22;24606;51.992;4.198;2023-05-07T15:15:12;27.40;67.70
38854;DHT22;24606;51.992;4.198;2023-05-07T15:20:16;27.40;66.70
38854;DHT22;24606;51.992;4.198;2023-05-07T15:25:18;27.20;71.70
38854;DHT22;24606;51.992;4.198;2023-05-07T15:30:20;27.70;73.40
38854;DHT22;24606;51.992;4.198;2023-05-07T15:35:23;28.00;70.40
38854;DHT22;24606;51.992;4.198;2023-05-07T15:40:26;28.10;68.00
38854;DHT22;24606;51.992;4.198;2023-05-07T15:45:28;28.20;69.60
38854;DHT22;24606;51.992;4.198;2023-05-07T15:50:31;27.60;68.90
38854;DHT22;24606;51.992;4.198;2023-05-07T15:55:33;28.00;71.30
38854;DHT22;24606;51.992;4.198;2023-05-07T16:00:35;28.20;70.60
38854;DHT22;24606;51.992;4.198;2023-05-07T16:05:41;27.90;65.30
38854;DHT22;24606;51.992;4.198;2023-05-07T16:10:43;27.90;64.10
38854;DHT22;24606;51.992;4.198;2023-05-07T16:15:45;27.80;63.50
38854;DHT22;24606;51.992;4.198;2023-05-07T16:20:49;27.90;63.40
38854;DHT22;24606;51.992;4.198;2023-05-07T16:25:51;27.90;62.80
38854;DHT22;24606;51.992;4.198;2023-05-07T16:30:52;27.80;63.40
38854;DHT22;24606;51.992;4.198;2023-05-07T16:35:56;27.70;63.20
38854;DHT22;24606;51.992;4.198;2023-05-07T16:40:57;27.70;63.40
38854;DHT22;24606;51.992;4.198;2023-05-07T16:45:59;27.80;63.00
38854;DHT22;24606;51.992;4.198;2023-05-07T16:51:03;27.80;63.00
38854;DHT22;24606;51.992;4.198;2023-05-07T16:56:07;27.90;62.30
38854;DHT22;24606;51.992;4.198;2023-05-07T17:01:09;27.90;62.00
38854;DHT22;24606;51.992;4.198;2023-05-07T17:06:13;27.90;61.80
38854;DHT22;24606;51.992;4.198;2023-05-07T17:11:15;27.90;61.40
38854;DHT22;24606;51.992;4.198;2023-05-07T17:16:16;28.00;61.20
38854;DHT22;24606;51.992;4.198;2023-05-07T17:21:20;28.10;60.70
38854;DHT22;24606;51.992;4.198;2023-05-07T17:26:22;28.10;60.50
38854;DHT22;24606;51.992;4.198;2023-05-07T17:31:24;28.20;60.20
38854;DHT22;24606;51.992;4.198;2023-05-07T17:36:27;28.20;60.10
38854;DHT22;24606;51.992;4.198;2023-05-07T17:41:29;28.20;60.10
38854;DHT22;24606;51.992;4.198;2023-05-07T17:46:32;28.30;60.10
38854;DHT22;24606;51.992;4.198;2023-05-07T17:51:35;28.30;60.60
38854;DHT22;24606;51.992;4.198;2023-05-07T17:56:37;28.30;60.00
38854;DHT22;24606;51.992;4.198;2023-05-07T18:01:39;28.30;60.00
38854;DHT22;24606;51.992;4.198;2023-05-07T18:06:43;28.40;59.70
38854;DHT22;24606;51.992;4.198;2023-05-07T18:11:45;28.20;59.80
38854;DHT22;24606;51.992;4.198;2023-05-07T18:16:47;28.30;59.30
38854;DHT22;24606;51.992;4.198;2023-05-07T18:21:50;28.30;59.10
38854;DHT22;24606;51.992;4.198;2023-05-07T18:26:52;28.60;60.70
38854;DHT22;24606;51.992;4.198;2023-05-07T18:31:54;28.80;61.10
38854;DHT22;24606;51.992;4.198;2023-05-07T18:36:57;28.90;62.00
38854;DHT22;24606;51.992;4.198;2023-05-07T18:41:59;28.90;62.10
38854;DHT22;24606;51.992;4.198;2023-05-07T18:47:01;29.00;62.20
38854;DHT22;24606;51.992;4.198;2023-05-07T18:52:04;28.90;63.20
38854;DHT22;24606;51.992;4.198;2023-05-07T18:57:06;28.90;63.20
38854;DHT22;24606;51.992;4.198;2023-05-07T19:02:08;28.90;63.20
38854;DHT22;24606;51.992;4.198;2023-05-07T19:07:11;28.80;63.80
38854;DHT22;24606;51.992;4.198;2023-05-07T19:12:13;28.80;63.30
38854;DHT22;24606;51.992;4.198;2023-05-07T19:17:15;28.60;63.20
38854;DHT22;24606;51.992;4.198;2023-05-07T19:22:18;28.50;62.80
38854;DHT22;24606;51.992;4.198;2023-05-07T19:27:20;28.30;62.00
38854;DHT22;24606;51.992;4.198;2023-05-07T19:32:22;28.30;61.90
38854;DHT22;24606;51.992;4.198;2023-05-07T19:37:25;28.20;61.80
38854;DHT22;24606;51.992;4.198;2023-05-07T19:42:27;28.10;61.80
38854;DHT22;24606;51.992;4.198;2023-05-07T19:47:29;28.10;61.70
38854;DHT22;24606;51.992;4.198;2023-05-07T19:52:32;28.00;61.60
38854;DHT22;24606;51.992;4.198;2023-05-07T19:57:34;27.90;61.60
38854;DHT22;24606;51.992;4.198;2023-05-07T20:02:36;27.90;61.70
38854;DHT22;24606;51.992;4.198;2023-05-07T20:07:40;27.80;61.70
38854;DHT22;24606;51.992;4.198;2023-05-07T20:12:42;27.70;61.60
38854;DHT22;24606;51.992;4.198;2023-05-07T20:17:43;27.70;61.80
38854;DHT22;24606;51.992;4.198;2023-05-07T20:22:47;27.60;61.70
38854;DHT22;24606;51.992;4.198;2023-05-07T20:27:49;27.60;62.00
38854;DHT22;24606;51.992;4.198;2023-05-07T20:32:51;27.50;61.90
38854;DHT22;24606;51.992;4.198;2023-05-07T20:37:54;27.40;62.00
38854;DHT22;24606;51.992;4.198;2023-05-07T20:42:56;27.40;62.10
38854;DHT22;24606;51.992;4.198;2023-05-07T20:47:59;27.30;62.10
38854;DHT22;24606;51.992;4.198;2023-05-07T20:53:02;27.20;62.10
38854;DHT22;24606;51.992;4.198;2023-05-07T20:58:04;27.20;62.20
38854;DHT22;24606;51.992;4.198;2023-05-07T21:03:06;27.20;62.40
38854;DHT22;24606;51.992;4.198;2023-05-07T21:08:09;27.10;62.30
38854;DHT22;24606;51.992;4.198;2023-05-07T21:13:11;27.00;62.40
38854;DHT22;24606;51.992;4.198;2023-05-07T21:18:13;27.00;62.50
38854;DHT22;24606;51.992;4.198;2023-05-07T21:23:16;26.90;62.40
38854;DHT22;24606;51.992;4.198;2023-05-07T21:28:18;26.90;62.50
38854;DHT22;24606;51.992;4.198;2023-05-07T21:33:20;26.80;62.40
38854;DHT22;24606;51.992;4.198;2023-05-07T21:38:23;26.80;62.60
38854;DHT22;24606;51.992;4.198;2023-05-07T21:43:25;26.70;62.50
38854;DHT22;24606;51.992;4.198;2023-05-07T21:48:27;26.70;62.60
38854;DHT22;24606;51.992;4.198;2023-05-07T21:53:30;26.60;62.70
38854;DHT22;24606;51.992;4.198;2023-05-07T21:58:32;26.60;62.80
38854;DHT22;24606;51.992;4.198;2023-05-07T22:03:34;26.50;62.80
38854;DHT22;24606;51.992;4.198;2023-05-07T22:08:37;26.50;62.80
38854;DHT22;24606;51.992;4.198;2023-05-07T22:13:39;26.40;62.80
38854;DHT22;24606;51.992;4.198;2023-05-07T22:18:41;26.40;62.90
38854;DHT22;24606;51.992;4.198;2023-05-07T22:23:44;26.30;63.00
38854;DHT22;24606;51.992;4.198;2023-05-07T22:28:46;26.10;63.90
38854;DHT22;24606;51.992;4.198;2023-05-07T22:33:48;26.20;63.00
38854;DHT22;24606;51.992;4.198;2023-05-07T22:38:51;26.20;63.00
38854;DHT22;24606;51.992;4.198;2023-05-07T22:43:53;26.10;62.90
38854;DHT22;24606;51.992;4.198;2023-05-07T22:48:55;26.10;62.90
38854;DHT22;24606;51.992;4.198;2023-05-07T22:53:58;26.00;62.90
38854;DHT22;24606;51.992;4.198;2023-05-07T22:59:00;26.00;62.90
38854;DHT22;24606;51.992;4.198;2023-05-07T23:04:02;25.90;62.80
38854;DHT22;24606;51.992;4.198;2023-05-07T23:09:05;25.90;62.90
38854;DHT22;24606;51.992;4.198;2023-05-07T23:14:08;25.90;63.10
38854;DHT22;24606;51.992;4.198;2023-05-07T23:19:09;25.80;63.10
38854;DHT22;24606;51.992;4.198;2023-05-07T23:24:13;25.80;63.20
38854;DHT22;24606;51.992;4.198;2023-05-07T23:29:15;25.80;63.20
38854;DHT22;24606;51.992;4.198;2023-05-07T23:34:17;25.70;63.20
38854;DHT22;24606;51.992;4.198;2023-05-07T23:39:24;25.70;63.30
38854;DHT22;24606;51.992;4.198;2023-05-07T23:44:26;25.60;63.20
38854;DHT22;24606;51.992;4.198;2023-05-07T23:49:28;25.50;63.30
38854;DHT22;24606;51.992;4.198;2023-05-07T23:54:31;25.50;63.30
38854;DHT22;24606;51.992;4.198;2023-05-07T23:59:33;25.50;63.30
